Terminal Aerodrome Forecast
Issued by NWS

Home | Current Version | Previous Version | Text Only | Print | Product List | Glossary On
Versions: 1 2 3 4 5 6 7 8 9 10 11 12 13 14 15 16 17 18 19
000
FTUS46 KSEW 200058 CCA
TAFBLI
TAF COR
KBLI 200058Z 2001/2024 15015G25KT P6SM VCSH SCT025 OVC050
      TEMPO 2001/2003 -SHRA BKN025 OVC050
     FM200300 15015G25KT P6SM -SHRA OVC025
     FM200900 15013KT P6SM VCSH BKN030 OVC050
      TEMPO 2009/2012 -SHRA
     FM201200 15010KT P6SM SCT030 BKN050 BKN110
     FM202000 13013G22KT P6SM SCT050 BKN110 OVC200=

USA.gov is the U.S. government's official web portal to all federal, state and local government web resources and services.